createdAt,value
2019-03-22T00:03:27.818Z,10.28
2019-03-22T00:08:32.129Z,9.63
2019-03-22T00:13:36.420Z,8.98
2019-03-22T00:18:41.054Z,9.88
2019-03-22T00:28:51.937Z,8.20
2019-03-22T00:33:59.595Z,6.42
2019-03-22T00:39:05.201Z,10.38
2019-03-22T00:44:10.318Z,11.90
2019-03-22T00:49:14.706Z,11.05
2019-03-22T00:54:22.453Z,14.65
2019-03-22T00:59:26.842Z,8.38
2019-03-22T01:04:31.355Z,7.50
2019-03-22T01:09:35.671Z,8.33
2019-03-22T01:14:40.343Z,10.60
2019-03-22T01:24:50.411Z,9.60
2019-03-22T01:29:55.791Z,11.43
2019-03-22T01:35:00.427Z,11.53
2019-03-22T01:40:07.048Z,14.20
2019-03-22T01:45:12.934Z,13.60
2019-03-22T01:50:17.489Z,15.03
2019-03-22T02:00:29.386Z,12.20
2019-03-22T02:05:36.959Z,11.70
2019-03-22T02:11:01.296Z,9.20
2019-03-22T02:16:05.727Z,13.18
2019-03-22T02:21:10.140Z,14.20
2019-03-22T02:26:19.376Z,16.62
2019-03-22T02:31:25.296Z,18.98
2019-03-22T02:36:30.848Z,18.05
2019-03-22T02:41:35.541Z,18.23
2019-03-22T02:46:40.232Z,16.70
2019-03-22T02:51:46.193Z,16.17
2019-03-22T02:56:54.831Z,15.05
2019-03-22T03:02:00.770Z,15.05
2019-03-22T03:07:05.160Z,16.70
2019-03-22T03:12:11.158Z,14.03
2019-03-22T03:17:17.106Z,14.60
2019-03-22T03:22:25.919Z,15.98
2019-03-22T03:27:30.762Z,12.37
2019-03-22T03:32:35.104Z,12.95
2019-03-22T03:37:40.311Z,12.28
2019-03-22T03:42:48.756Z,14.20
2019-03-22T03:47:53.683Z,17.92
2019-03-22T03:52:59.510Z,15.15
2019-03-22T03:58:04.020Z,11.63
2019-03-22T04:03:08.321Z,12.45
2019-03-22T04:08:12.709Z,10.58
2019-03-22T04:13:17.537Z,11.65
2019-03-22T04:18:21.959Z,10.90
2019-03-22T04:23:26.279Z,11.90
2019-03-22T04:28:31.206Z,12.28
2019-03-22T04:33:35.921Z,11.85
2019-03-22T04:38:45.483Z,12.63
2019-03-22T04:43:50.133Z,12.58
2019-03-22T04:48:54.497Z,15.85
2019-03-22T04:54:18.746Z,14.65
2019-03-22T04:59:25.115Z,15.38
2019-03-22T05:04:30.080Z,13.03
2019-03-22T05:09:36.291Z,10.63
2019-03-22T05:14:44.140Z,13.62
2019-03-22T05:19:53.565Z,13.75
2019-03-22T05:24:58.838Z,9.95
2019-03-22T05:30:04.325Z,10.80
2019-03-22T05:35:11.038Z,13.48
2019-03-22T05:40:20.773Z,14.00
2019-03-22T05:45:25.447Z,14.63
2019-03-22T05:50:31.360Z,13.48
2019-03-22T05:55:36.083Z,12.15
2019-03-22T06:00:51.458Z,13.43
2019-03-22T06:05:55.900Z,12.63
2019-03-22T06:16:04.357Z,18.45
2019-03-22T06:21:11.024Z,19.67
2019-03-22T06:26:18.205Z,18.98
2019-03-22T06:31:22.552Z,21.23
2019-03-22T06:36:26.868Z,21.85
2019-03-22T06:41:31.653Z,22.17
2019-03-22T06:46:56.665Z,24.30
2019-03-22T06:52:01.057Z,22.30
2019-03-22T06:57:10.026Z,24.75
2019-03-22T07:02:18.982Z,28.75
2019-03-22T07:07:25.566Z,32.28
2019-03-22T07:12:29.874Z,28.92
2019-03-22T07:17:34.596Z,26.52
2019-03-22T07:27:42.266Z,28.07
2019-03-22T07:32:49.882Z,26.05
2019-03-22T07:37:54.198Z,28.38
2019-03-22T07:42:59.276Z,25.80
2019-03-22T07:48:03.826Z,28.15
2019-03-22T07:53:08.444Z,25.92
2019-03-22T07:59:23.135Z,25.57
2019-03-22T08:04:29.943Z,25.12
2019-03-22T08:09:37.882Z,25.17
2019-03-22T08:14:45.782Z,25.25
2019-03-22T08:19:57.085Z,25.10
2019-03-22T08:25:01.360Z,22.52
2019-03-22T08:30:08.581Z,21.42
2019-03-22T08:35:17.904Z,22.15
2019-03-22T08:40:31.360Z,20.75
2019-03-22T08:45:43.618Z,22.50
2019-03-22T08:50:52.888Z,20.20
2019-03-22T08:55:57.331Z,19.48
2019-03-22T09:01:03.905Z,18.80
2019-03-22T09:06:59.101Z,18.02
2019-03-22T09:12:08.369Z,15.03
2019-03-22T09:23:27.399Z,13.80
2019-03-22T09:28:37.184Z,17.35
2019-03-22T09:33:41.562Z,14.70
2019-03-22T09:38:46.959Z,15.72
2019-03-22T09:44:18.390Z,14.13
2019-03-22T09:49:25.930Z,14.23
2019-03-22T10:13:10.143Z,14.83
2019-03-22T10:18:37.189Z,13.85
2019-03-22T10:23:46.046Z,14.75
2019-03-22T10:41:41.197Z,9.95
2019-03-22T10:46:47.156Z,10.55
2019-03-22T10:51:57.691Z,10.25
2019-03-22T10:56:59.691Z,10.13
2019-03-22T11:02:07.405Z,9.85
2019-03-22T11:07:10.342Z,8.55
2019-03-22T11:12:15.041Z,6.70
2019-03-22T11:22:24.570Z,7.17
2019-03-22T11:27:34.090Z,7.80
2019-03-22T11:32:38.770Z,6.72
2019-03-22T11:42:57.240Z,6.37
2019-03-22T11:48:02.139Z,6.10
2019-03-22T11:53:21.025Z,5.90
2019-03-22T11:58:28.858Z,5.33
2019-03-22T12:03:59.250Z,5.80
2019-03-22T12:09:04.342Z,6.28
2019-03-22T12:14:08.953Z,5.58
2019-03-22T12:24:18.669Z,6.10
2019-03-22T12:29:22.476Z,5.70
2019-03-22T12:34:26.809Z,6.50
2019-03-22T12:39:31.097Z,6.92
2019-03-22T12:44:35.793Z,6.80
2019-03-22T12:54:44.941Z,7.12
2019-03-22T12:59:49.562Z,7.15
2019-03-22T13:04:54.132Z,7.42
2019-03-22T13:09:59.094Z,6.45
2019-03-22T13:15:11.111Z,7.72
2019-03-22T13:20:20.327Z,7.53
2019-03-22T13:25:29.378Z,6.83
2019-03-22T13:30:41.989Z,7.30
2019-03-22T13:35:46.373Z,6.87
2019-03-22T13:40:50.934Z,7.35
2019-03-22T13:45:58.905Z,6.05
2019-03-22T13:51:03.360Z,4.83
2019-03-22T13:56:07.977Z,6.12
2019-03-22T14:01:12.436Z,6.72
2019-03-22T14:06:24.139Z,5.75
2019-03-22T14:11:28.845Z,4.75
2019-03-22T14:21:36.602Z,3.85
2019-03-22T14:26:40.861Z,3.30
2019-03-22T14:31:45.152Z,3.02
2019-03-22T14:36:49.457Z,2.98
2019-03-22T14:41:54.105Z,2.62
2019-03-22T14:46:59.775Z,3.30
2019-03-22T14:52:06.133Z,2.40
2019-03-22T14:57:19.599Z,2.05
2019-03-22T15:02:27.366Z,1.90
2019-03-22T15:07:31.983Z,2.67
2019-03-22T15:12:39.034Z,1.85
2019-03-22T15:17:53.938Z,2.17
2019-03-22T15:23:45.560Z,2.62
2019-03-22T15:29:07.178Z,2.70
2019-03-22T15:34:36.156Z,2.95
2019-03-22T15:39:58.947Z,2.75
2019-03-22T15:45:03.628Z,3.35
2019-03-22T15:55:15.854Z,3.45
2019-03-22T16:00:20.364Z,3.80
2019-03-22T16:05:27.996Z,4.35
2019-03-22T16:10:37.890Z,4.78
2019-03-22T16:15:42.340Z,4.87
2019-03-22T16:21:28.467Z,4.85
2019-03-22T16:26:44.016Z,5.55
2019-03-22T16:31:48.659Z,6.05
2019-03-22T16:36:55.434Z,5.70
2019-03-22T16:42:02.459Z,5.95
2019-03-22T16:47:13.550Z,5.72
2019-03-22T16:52:18.133Z,5.65
2019-03-22T16:57:24.564Z,5.97
2019-03-22T17:02:28.922Z,6.33
2019-03-22T17:07:33.313Z,6.17
2019-03-22T17:12:37.605Z,5.87
2019-03-22T17:17:43.477Z,5.92
2019-03-22T17:22:49.828Z,5.83
2019-03-22T17:27:54.247Z,5.65
2019-03-22T17:32:58.544Z,5.75
2019-03-22T17:38:03.262Z,5.20
2019-03-22T17:48:12.125Z,5.65
2019-03-22T17:53:16.726Z,5.53
2019-03-22T17:58:21.881Z,5.95
2019-03-22T18:03:27.669Z,6.10
2019-03-22T18:08:31.949Z,5.90
2019-03-22T18:13:36.230Z,5.37
2019-03-22T18:18:41.218Z,5.65
2019-03-22T18:23:48.767Z,4.70
2019-03-22T18:28:53.086Z,4.70
2019-03-22T18:33:57.401Z,5.55
2019-03-22T18:39:01.699Z,3.37
2019-03-22T18:44:06.125Z,3.62
2019-03-22T18:49:10.894Z,3.65
2019-03-22T18:59:19.506Z,3.50
2019-03-22T19:04:24.380Z,3.72
2019-03-22T19:09:28.952Z,3.77
2019-03-22T19:14:33.596Z,3.25
2019-03-22T19:19:37.988Z,3.40
2019-03-22T19:24:42.817Z,3.37
2019-03-22T19:29:47.450Z,2.80
2019-03-22T19:34:54.509Z,3.35
2019-03-22T19:39:58.986Z,4.03
2019-03-22T19:45:03.344Z,3.27
2019-03-22T19:50:07.821Z,3.60
2019-03-22T19:55:13.514Z,3.20
2019-03-22T20:00:17.960Z,2.92
2019-03-22T20:05:32.986Z,2.98
2019-03-22T20:10:37.380Z,2.72
2019-03-22T20:15:41.822Z,2.92
2019-03-22T20:20:46.207Z,2.87
2019-03-22T20:25:50.559Z,2.62
2019-03-22T20:30:54.869Z,2.55
2019-03-22T20:35:59.428Z,2.95
2019-03-22T20:41:03.808Z,3.35
2019-03-22T20:46:08.175Z,3.70
2019-03-22T20:51:33.832Z,3.65
2019-03-22T20:56:39.602Z,3.98
2019-03-22T21:01:48.015Z,3.47
2019-03-22T21:06:56.843Z,3.70
2019-03-22T21:12:09.416Z,3.17
2019-03-22T21:17:16.165Z,3.83
2019-03-22T21:22:20.741Z,3.65
2019-03-22T21:27:26.656Z,3.20
2019-03-22T21:32:32.914Z,3.98
2019-03-22T21:37:38.599Z,3.62
2019-03-22T21:42:43.354Z,2.90
2019-03-22T21:52:53.907Z,2.87
2019-03-22T21:57:58.864Z,3.37
2019-03-22T22:03:03.567Z,3.20
2019-03-22T22:13:11.883Z,3.10
2019-03-22T22:23:21.173Z,2.67
2019-03-22T22:28:25.870Z,2.58
2019-03-22T22:41:11.332Z,3.62
2019-03-22T22:46:15.769Z,2.90
2019-03-22T22:51:20.565Z,3.20
2019-03-22T22:57:03.584Z,2.87
2019-03-22T23:02:08.523Z,3.30
2019-03-22T23:07:16.029Z,2.62
2019-03-22T23:12:21.718Z,2.98
2019-03-22T23:17:29.108Z,2.95
2019-03-22T23:22:59.498Z,3.10
2019-03-22T23:28:44.999Z,4.00
2019-03-22T23:33:49.445Z,3.12
2019-03-22T23:39:42.985Z,3.98
2019-03-22T23:44:51.390Z,3.12
2019-03-22T23:49:55.811Z,3.35
2019-03-22T23:55:00.352Z,3.47
